sensor_id;sensor_type;location;lat;lon;timestamp;temperature;humidity
21417;DHT22;10869;52.238;10.716;2023-09-30T11:21:23;20.60;99.90
21417;DHT22;10869;52.238;10.716;2023-09-30T11:23:52;20.70;99.90
21417;DHT22;10869;52.238;10.716;2023-09-30T11:26:32;20.80;99.90
21417;DHT22;10869;52.238;10.716;2023-09-30T11:29:11;20.60;99.90
21417;DHT22;10869;52.238;10.716;2023-09-30T11:31:43;20.50;99.90
21417;DHT22;10869;52.238;10.716;2023-09-30T11:34:10;20.10;99.90
21417;DHT22;10869;52.238;10.716;2023-09-30T11:36:53;20.10;99.90
21417;DHT22;10869;52.238;10.716;2023-09-30T11:39:24;20.40;99.90
21417;DHT22;10869;52.238;10.716;2023-09-30T11:41:50;20.30;99.90
21417;DHT22;10869;52.238;10.716;2023-09-30T11:44:16;20.40;99.90
21417;DHT22;10869;52.238;10.716;2023-09-30T11:46:53;20.50;99.90
21417;DHT22;10869;52.238;10.716;2023-09-30T11:51:52;20.90;99.90
21417;DHT22;10869;52.238;10.716;2023-09-30T11:57:40;20.00;99.90
21417;DHT22;10869;52.238;10.716;2023-09-30T12:00:06;19.60;99.90
21417;DHT22;10869;52.238;10.716;2023-09-30T12:02:39;19.70;99.90
21417;DHT22;10869;52.238;10.716;2023-09-30T12:08:27;19.80;99.90
21417;DHT22;10869;52.238;10.716;2023-09-30T12:10:54;20.20;99.90
21417;DHT22;10869;52.238;10.716;2023-09-30T12:13:21;20.50;99.90
21417;DHT22;10869;52.238;10.716;2023-09-30T12:15:47;20.70;99.90
21417;DHT22;10869;52.238;10.716;2023-09-30T12:18:12;20.80;99.90
21417;DHT22;10869;52.238;10.716;2023-09-30T12:20:42;20.80;99.90
21417;DHT22;10869;52.238;10.716;2023-09-30T12:23:10;20.50;99.90
21417;DHT22;10869;52.238;10.716;2023-09-30T12:25:35;20.40;99.90
21417;DHT22;10869;52.238;10.716;2023-09-30T12:28:03;20.50;99.90
21417;DHT22;10869;52.238;10.716;2023-09-30T12:30:28;20.60;99.90
21417;DHT22;10869;52.238;10.716;2023-09-30T12:32:57;20.60;99.90
21417;DHT22;10869;52.238;10.716;2023-09-30T12:35:23;20.60;99.90
21417;DHT22;10869;52.238;10.716;2023-09-30T12:41:12;19.90;99.90
21417;DHT22;10869;52.238;10.716;2023-09-30T12:43:38;19.50;99.90
21417;DHT22;10869;52.238;10.716;2023-09-30T12:46:03;19.40;99.90
21417;DHT22;10869;52.238;10.716;2023-09-30T12:48:32;19.70;99.90
21417;DHT22;10869;52.238;10.716;2023-09-30T12:50:59;19.90;99.90
21417;DHT22;10869;52.238;10.716;2023-09-30T12:53:25;20.00;99.90
21417;DHT22;10869;52.238;10.716;2023-09-30T12:55:50;20.20;99.90
21417;DHT22;10869;52.238;10.716;2023-09-30T12:58:16;20.40;99.90
21417;DHT22;10869;52.238;10.716;2023-09-30T13:00:42;20.50;99.90
21417;DHT22;10869;52.238;10.716;2023-09-30T13:03:09;20.50;99.90
21417;DHT22;10869;52.238;10.716;2023-09-30T13:05:35;20.60;99.90
21417;DHT22;10869;52.238;10.716;2023-09-30T13:08:01;20.70;99.90
21417;DHT22;10869;52.238;10.716;2023-09-30T13:13:49;20.70;99.90
21417;DHT22;10869;52.238;10.716;2023-09-30T13:16:14;20.80;99.90
21417;DHT22;10869;52.238;10.716;2023-09-30T13:18:40;20.90;99.90
21417;DHT22;10869;52.238;10.716;2023-09-30T13:21:06;20.90;99.90
21417;DHT22;10869;52.238;10.716;2023-09-30T13:23:32;20.90;99.90
21417;DHT22;10869;52.238;10.716;2023-09-30T13:25:58;20.90;99.90
21417;DHT22;10869;52.238;10.716;2023-09-30T13:28:24;20.80;99.10
21417;DHT22;10869;52.238;10.716;2023-09-30T13:30:50;20.70;99.70
21417;DHT22;10869;52.238;10.716;2023-09-30T13:33:16;20.90;99.90
21417;DHT22;10869;52.238;10.716;2023-09-30T13:35:45;21.00;99.90
21417;DHT22;10869;52.238;10.716;2023-09-30T13:41:35;21.00;98.80
21417;DHT22;10869;52.238;10.716;2023-09-30T13:44:01;20.90;98.70
21417;DHT22;10869;52.238;10.716;2023-09-30T13:46:26;20.70;98.40
21417;DHT22;10869;52.238;10.716;2023-09-30T13:48:53;20.70;98.60
21417;DHT22;10869;52.238;10.716;2023-09-30T13:51:19;20.60;98.90
21417;DHT22;10869;52.238;10.716;2023-09-30T13:53:45;20.50;99.10
21417;DHT22;10869;52.238;10.716;2023-09-30T13:56:11;20.50;99.10
21417;DHT22;10869;52.238;10.716;2023-09-30T13:58:37;20.50;98.30
21417;DHT22;10869;52.238;10.716;2023-09-30T14:01:03;20.50;98.40
21417;DHT22;10869;52.238;10.716;2023-09-30T14:03:29;20.50;98.20
21417;DHT22;10869;52.238;10.716;2023-09-30T14:05:55;20.50;97.70
21417;DHT22;10869;52.238;10.716;2023-09-30T14:08:25;20.40;97.50
21417;DHT22;10869;52.238;10.716;2023-09-30T14:10:53;20.40;97.30
21417;DHT22;10869;52.238;10.716;2023-09-30T14:13:19;20.40;96.60
21417;DHT22;10869;52.238;10.716;2023-09-30T14:15:45;20.30;96.50
21417;DHT22;10869;52.238;10.716;2023-09-30T14:18:12;20.30;96.70
21417;DHT22;10869;52.238;10.716;2023-09-30T14:20:46;20.30;96.60
21417;DHT22;10869;52.238;10.716;2023-09-30T14:23:13;20.30;96.40
21417;DHT22;10869;52.238;10.716;2023-09-30T14:25:39;20.30;96.30
21417;DHT22;10869;52.238;10.716;2023-09-30T14:28:05;20.30;96.20
21417;DHT22;10869;52.238;10.716;2023-09-30T14:33:53;20.20;96.50
21417;DHT22;10869;52.238;10.716;2023-09-30T14:36:19;20.30;96.70
21417;DHT22;10869;52.238;10.716;2023-09-30T14:42:07;20.30;96.20
21417;DHT22;10869;52.238;10.716;2023-09-30T14:47:56;19.60;96.80
21417;DHT22;10869;52.238;10.716;2023-09-30T14:50:22;19.30;97.70
21417;DHT22;10869;52.238;10.716;2023-09-30T14:52:48;19.10;98.20
21417;DHT22;10869;52.238;10.716;2023-09-30T14:55:15;18.90;98.20
21417;DHT22;10869;52.238;10.716;2023-09-30T14:57:42;18.90;98.10
21417;DHT22;10869;52.238;10.716;2023-09-30T15:02:54;18.60;99.10
21417;DHT22;10869;52.238;10.716;2023-09-30T15:05:20;18.50;99.00
21417;DHT22;10869;52.238;10.716;2023-09-30T15:07:49;18.30;99.40
21417;DHT22;10869;52.238;10.716;2023-09-30T15:13:40;18.10;99.90
21417;DHT22;10869;52.238;10.716;2023-09-30T15:19:31;18.00;99.90
21417;DHT22;10869;52.238;10.716;2023-09-30T15:21:58;18.20;99.90
21417;DHT22;10869;52.238;10.716;2023-09-30T15:24:31;18.20;99.90
21417;DHT22;10869;52.238;10.716;2023-09-30T15:30:19;18.40;99.90
21417;DHT22;10869;52.238;10.716;2023-09-30T15:32:44;18.50;99.90
21417;DHT22;10869;52.238;10.716;2023-09-30T15:35:10;18.50;99.90
21417;DHT22;10869;52.238;10.716;2023-09-30T15:37:36;18.50;99.90
21417;DHT22;10869;52.238;10.716;2023-09-30T15:40:02;18.50;99.90
21417;DHT22;10869;52.238;10.716;2023-09-30T15:48:27;18.30;99.60
21417;DHT22;10869;52.238;10.716;2023-09-30T15:53:29;18.10;99.90
21417;DHT22;10869;52.238;10.716;2023-09-30T15:56:04;18.00;99.90
21417;DHT22;10869;52.238;10.716;2023-09-30T15:58:31;17.90;99.90
21417;DHT22;10869;52.238;10.716;2023-09-30T16:00:59;17.90;99.90
21417;DHT22;10869;52.238;10.716;2023-09-30T16:03:25;17.70;99.90
21417;DHT22;10869;52.238;10.716;2023-09-30T16:05:58;17.70;99.90
21417;DHT22;10869;52.238;10.716;2023-09-30T16:08:24;17.60;99.90
21417;DHT22;10869;52.238;10.716;2023-09-30T16:14:14;17.50;99.90
21417;DHT22;10869;52.238;10.716;2023-09-30T16:29:37;17.00;99.90
21417;DHT22;10869;52.238;10.716;2023-09-30T16:32:03;16.80;99.90
21417;DHT22;10869;52.238;10.716;2023-09-30T16:34:29;16.80;99.90
21417;DHT22;10869;52.238;10.716;2023-09-30T16:40:17;16.70;99.90
21417;DHT22;10869;52.238;10.716;2023-09-30T16:42:43;16.60;99.90
21417;DHT22;10869;52.238;10.716;2023-09-30T16:45:10;16.50;99.90
21417;DHT22;10869;52.238;10.716;2023-09-30T16:47:35;16.40;99.90
21417;DHT22;10869;52.238;10.716;2023-09-30T16:50:01;16.30;99.90
21417;DHT22;10869;52.238;10.716;2023-09-30T16:52:27;16.30;99.90
21417;DHT22;10869;52.238;10.716;2023-09-30T16:54:55;16.20;99.90
21417;DHT22;10869;52.238;10.716;2023-09-30T16:57:21;16.10;99.90
21417;DHT22;10869;52.238;10.716;2023-09-30T16:59:48;16.00;99.90
21417;DHT22;10869;52.238;10.716;2023-09-30T17:02:23;15.90;99.90
21417;DHT22;10869;52.238;10.716;2023-09-30T17:04:51;15.80;99.90
21417;DHT22;10869;52.238;10.716;2023-09-30T17:07:18;15.70;99.90
21417;DHT22;10869;52.238;10.716;2023-09-30T17:09:44;15.60;99.90
21417;DHT22;10869;52.238;10.716;2023-09-30T17:12:10;15.50;99.90
21417;DHT22;10869;52.238;10.716;2023-09-30T17:14:36;15.40;99.90
21417;DHT22;10869;52.238;10.716;2023-09-30T17:22:15;15.20;99.90
21417;DHT22;10869;52.238;10.716;2023-09-30T17:28:05;15.10;99.90
21417;DHT22;10869;52.238;10.716;2023-09-30T17:30:39;15.00;99.90
21417;DHT22;10869;52.238;10.716;2023-09-30T17:33:05;14.90;99.90
21417;DHT22;10869;52.238;10.716;2023-09-30T17:39:13;14.80;99.90
21417;DHT22;10869;52.238;10.716;2023-09-30T17:41:38;14.80;99.90
21417;DHT22;10869;52.238;10.716;2023-09-30T17:44:04;14.70;99.90
21417;DHT22;10869;52.238;10.716;2023-09-30T17:46:31;14.70;99.90
21417;DHT22;10869;52.238;10.716;2023-09-30T17:48:56;14.70;99.90
21417;DHT22;10869;52.238;10.716;2023-09-30T17:51:22;14.60;99.90
21417;DHT22;10869;52.238;10.716;2023-09-30T17:57:10;14.50;99.90
21417;DHT22;10869;52.238;10.716;2023-09-30T17:59:36;14.50;99.90
21417;DHT22;10869;52.238;10.716;2023-09-30T18:02:02;14.40;99.90
21417;DHT22;10869;52.238;10.716;2023-09-30T18:04:30;14.40;99.90
21417;DHT22;10869;52.238;10.716;2023-09-30T18:09:39;14.40;99.90
21417;DHT22;10869;52.238;10.716;2023-09-30T18:12:05;14.30;99.90
21417;DHT22;10869;52.238;10.716;2023-09-30T18:14:37;14.30;99.90
21417;DHT22;10869;52.238;10.716;2023-09-30T18:17:03;14.30;99.90
21417;DHT22;10869;52.238;10.716;2023-09-30T18:19:29;14.20;99.90
21417;DHT22;10869;52.238;10.716;2023-09-30T18:21:55;14.20;99.90
21417;DHT22;10869;52.238;10.716;2023-09-30T18:24:20;14.20;99.90
21417;DHT22;10869;52.238;10.716;2023-09-30T18:26:46;14.20;99.90
21417;DHT22;10869;52.238;10.716;2023-09-30T18:32:34;14.30;99.90
21417;DHT22;10869;52.238;10.716;2023-09-30T18:35:00;14.30;99.90
21417;DHT22;10869;52.238;10.716;2023-09-30T18:37:26;14.30;99.90
21417;DHT22;10869;52.238;10.716;2023-09-30T18:39:53;14.30;99.90
21417;DHT22;10869;52.238;10.716;2023-09-30T18:45:45;14.30;99.90
21417;DHT22;10869;52.238;10.716;2023-09-30T18:51:33;14.40;99.90
21417;DHT22;10869;52.238;10.716;2023-09-30T18:57:21;14.30;99.90
21417;DHT22;10869;52.238;10.716;2023-09-30T18:59:47;14.30;99.90
21417;DHT22;10869;52.238;10.716;2023-09-30T19:05:37;14.30;99.90
21417;DHT22;10869;52.238;10.716;2023-09-30T19:08:04;14.30;99.90
21417;DHT22;10869;52.238;10.716;2023-09-30T19:10:30;14.30;99.90
21417;DHT22;10869;52.238;10.716;2023-09-30T19:12:56;14.30;99.90
21417;DHT22;10869;52.238;10.716;2023-09-30T19:15:22;14.30;99.90
21417;DHT22;10869;52.238;10.716;2023-09-30T19:17:49;14.30;99.90
21417;DHT22;10869;52.238;10.716;2023-09-30T19:20:15;14.30;99.90
21417;DHT22;10869;52.238;10.716;2023-09-30T19:22:41;14.30;99.90
21417;DHT22;10869;52.238;10.716;2023-09-30T19:25:08;14.30;99.90
21417;DHT22;10869;52.238;10.716;2023-09-30T19:27:34;14.30;99.90
21417;DHT22;10869;52.238;10.716;2023-09-30T19:33:22;14.40;99.90
21417;DHT22;10869;52.238;10.716;2023-09-30T19:35:48;14.30;99.90
21417;DHT22;10869;52.238;10.716;2023-09-30T19:38:14;14.30;99.90
21417;DHT22;10869;52.238;10.716;2023-09-30T19:40:40;14.30;99.90
21417;DHT22;10869;52.238;10.716;2023-09-30T19:46:28;14.40;99.90
21417;DHT22;10869;52.238;10.716;2023-09-30T19:48:54;14.40;99.90
21417;DHT22;10869;52.238;10.716;2023-09-30T19:51:23;14.40;99.90
21417;DHT22;10869;52.238;10.716;2023-09-30T19:53:59;14.40;99.90
21417;DHT22;10869;52.238;10.716;2023-09-30T19:56:25;14.40;99.90
21417;DHT22;10869;52.238;10.716;2023-09-30T19:58:50;14.50;99.90
21417;DHT22;10869;52.238;10.716;2023-09-30T20:01:16;14.50;99.90
21417;DHT22;10869;52.238;10.716;2023-09-30T20:03:45;14.50;99.90
21417;DHT22;10869;52.238;10.716;2023-09-30T20:06:21;14.50;99.90
21417;DHT22;10869;52.238;10.716;2023-09-30T20:08:49;14.40;99.90
21417;DHT22;10869;52.238;10.716;2023-09-30T20:11:23;14.40;99.90
21417;DHT22;10869;52.238;10.716;2023-09-30T20:13:51;14.50;99.90
21417;DHT22;10869;52.238;10.716;2023-09-30T20:16:17;14.50;99.90
21417;DHT22;10869;52.238;10.716;2023-09-30T20:18:43;14.40;99.90
21417;DHT22;10869;52.238;10.716;2023-09-30T20:21:09;14.40;99.90
21417;DHT22;10869;52.238;10.716;2023-09-30T20:23:35;14.40;99.90
21417;DHT22;10869;52.238;10.716;2023-09-30T20:26:01;14.40;99.90
21417;DHT22;10869;52.238;10.716;2023-09-30T20:31:50;14.40;99.90
21417;DHT22;10869;52.238;10.716;2023-09-30T20:34:19;14.40;99.90
21417;DHT22;10869;52.238;10.716;2023-09-30T20:36:44;14.40;99.90
21417;DHT22;10869;52.238;10.716;2023-09-30T20:39:10;14.40;99.90
21417;DHT22;10869;52.238;10.716;2023-09-30T20:41:39;14.40;99.90
21417;DHT22;10869;52.238;10.716;2023-09-30T20:44:06;14.40;99.90
21417;DHT22;10869;52.238;10.716;2023-09-30T20:46:34;14.40;99.90
21417;DHT22;10869;52.238;10.716;2023-09-30T20:49:00;14.40;99.90
21417;DHT22;10869;52.238;10.716;2023-09-30T20:51:28;14.50;99.90
21417;DHT22;10869;52.238;10.716;2023-09-30T20:53:54;14.40;99.90
21417;DHT22;10869;52.238;10.716;2023-09-30T20:56:20;14.40;99.90
21417;DHT22;10869;52.238;10.716;2023-09-30T20:58:46;14.40;99.90
21417;DHT22;10869;52.238;10.716;2023-09-30T21:01:12;14.40;99.90
21417;DHT22;10869;52.238;10.716;2023-09-30T21:03:40;14.40;99.90
21417;DHT22;10869;52.238;10.716;2023-09-30T21:06:07;14.40;99.90
21417;DHT22;10869;52.238;10.716;2023-09-30T21:08:36;14.40;99.90
21417;DHT22;10869;52.238;10.716;2023-09-30T21:11:03;14.40;99.90
21417;DHT22;10869;52.238;10.716;2023-09-30T21:13:29;14.40;99.90
21417;DHT22;10869;52.238;10.716;2023-09-30T21:15:55;14.40;99.90
21417;DHT22;10869;52.238;10.716;2023-09-30T21:18:24;14.40;99.90
21417;DHT22;10869;52.238;10.716;2023-09-30T21:20:50;14.40;99.90
21417;DHT22;10869;52.238;10.716;2023-09-30T21:23:16;14.30;99.90
21417;DHT22;10869;52.238;10.716;2023-09-30T21:25:42;14.30;99.90
21417;DHT22;10869;52.238;10.716;2023-09-30T21:28:08;14.30;99.90
21417;DHT22;10869;52.238;10.716;2023-09-30T21:30:36;14.30;99.90
21417;DHT22;10869;52.238;10.716;2023-09-30T21:33:06;14.30;99.90
21417;DHT22;10869;52.238;10.716;2023-09-30T21:35:32;14.30;99.90
21417;DHT22;10869;52.238;10.716;2023-09-30T21:37:58;14.30;99.90
21417;DHT22;10869;52.238;10.716;2023-09-30T21:40:24;14.30;99.90
21417;DHT22;10869;52.238;10.716;2023-09-30T21:42:50;14.30;99.90
21417;DHT22;10869;52.238;10.716;2023-09-30T21:45:16;14.30;99.90
21417;DHT22;10869;52.238;10.716;2023-09-30T21:47:42;14.30;99.90
21417;DHT22;10869;52.238;10.716;2023-09-30T21:50:09;14.30;99.90
21417;DHT22;10869;52.238;10.716;2023-09-30T21:52:35;14.30;99.90
21417;DHT22;10869;52.238;10.716;2023-09-30T21:55:00;14.30;99.90
21417;DHT22;10869;52.238;10.716;2023-09-30T21:57:26;14.40;99.90
21417;DHT22;10869;52.238;10.716;2023-09-30T21:59:52;14.40;99.90
21417;DHT22;10869;52.238;10.716;2023-09-30T22:02:18;14.40;99.90
21417;DHT22;10869;52.238;10.716;2023-09-30T22:04:44;14.40;99.90
21417;DHT22;10869;52.238;10.716;2023-09-30T22:07:10;14.40;99.90
21417;DHT22;10869;52.238;10.716;2023-09-30T22:09:36;14.40;99.90
21417;DHT22;10869;52.238;10.716;2023-09-30T22:12:03;14.40;99.90
21417;DHT22;10869;52.238;10.716;2023-09-30T22:14:29;14.50;99.90
21417;DHT22;10869;52.238;10.716;2023-09-30T22:16:55;14.50;99.90
21417;DHT22;10869;52.238;10.716;2023-09-30T22:19:21;14.50;99.90
21417;DHT22;10869;52.238;10.716;2023-09-30T22:21:48;14.50;99.90
21417;DHT22;10869;52.238;10.716;2023-09-30T22:24:13;14.50;99.90
21417;DHT22;10869;52.238;10.716;2023-09-30T22:26:41;14.50;99.90
21417;DHT22;10869;52.238;10.716;2023-09-30T22:29:08;14.40;99.90
21417;DHT22;10869;52.238;10.716;2023-09-30T22:31:34;14.50;99.90
21417;DHT22;10869;52.238;10.716;2023-09-30T22:34:02;14.50;99.90
21417;DHT22;10869;52.238;10.716;2023-09-30T22:36:29;14.50;99.90
21417;DHT22;10869;52.238;10.716;2023-09-30T22:38:55;14.50;99.90
21417;DHT22;10869;52.238;10.716;2023-09-30T22:41:21;14.50;99.90
21417;DHT22;10869;52.238;10.716;2023-09-30T22:43:47;14.50;99.90
21417;DHT22;10869;52.238;10.716;2023-09-30T22:46:12;14.50;99.90
21417;DHT22;10869;52.238;10.716;2023-09-30T22:48:38;14.50;99.90
21417;DHT22;10869;52.238;10.716;2023-09-30T22:51:08;14.50;99.90
21417;DHT22;10869;52.238;10.716;2023-09-30T22:53:35;14.50;99.90
21417;DHT22;10869;52.238;10.716;2023-09-30T22:56:02;14.50;99.90
21417;DHT22;10869;52.238;10.716;2023-09-30T22:58:29;14.50;99.90
